Queens Village, NY (11427)

6:04 PM EDT on August 29, 2015 (GMT -0400)
Oakland Gardens | | Change Station
CLOSE
Current Station
Personal Weather Station
Location: New York, NY
Elevation: 95 ft
Nearby Weather Stations

Elev 95 ft 40.75 °N, 73.75 °W | Updated 3 minutes ago

Mostly Cloudy
Mostly Cloudy
79.8 °F
Feels Like 82 °F
N
1.0
Wind Variable Wind from NNE
Gusts 4.0 mph

Today
High -- | Low -- °F
--% Chance of Precip.
Yesterday
High -- | Low -- °F
Precip. -- in
6:18 AM 7:32 PM
Full, 100% visible
Pressure 30.13 in
Visibility 10.0 miles
Clouds Few 6000 ft
Mostly Cloudy 26000 ft
Heat Index 82 °F
Dew Point 66 °F
Humidity 62%
Rainfall 0.00 in
Snow Depth Not available.
UV 1 out of 12
Pollen 10.00 out of 12
Air Quality Not available.
Flu Activity Not available.
METAR KJFK 292151Z 19013KT 10SM FEW060 BKN260 27/17 A3013 RMK AO2 SLP201 T02670167
Pressure 30.13 in
Visibility 10.0 miles
Clouds Few 6000 ft
Mostly Cloudy 26000 ft
Heat Index 82 °F
Dew Point 66 °F
Humidity 62%
Rainfall 0.00 in
Snow Depth Not available.
UV 1 out of 12
Pollen 10.00 out of 12
Air Quality Not available.
Flu Activity Not available.
METAR KJFK 292151Z 19013KT 10SM FEW060 BKN260 27/17 A3013 RMK AO2 SLP201 T02670167

10-Day Weather Forecast

×

Almanac

Astronomy

Aug. 29, 2015 Rise Set
Actual Time
Civil Twilight
Nautical Twilight
Astronomical Twilight
Moon
Length of Visible Light
Length of Day
Tomorrow will be .
, % of the Moon is Illuminated

Today's Extremes

State Highs State Lows

Community

WunderPhotos

Upload Photos

1,850,787 photos uploaded!

WunderBlogs® & News

Nearby

Air Quality

  Air Quality AQ Index Pollutant
Not available.

Snow Depth

Station Depth Elevation

Earthquake Activity

City Distance Mag. Time & Date
Minimum magnitude displayed is 2.5.

Coastal Water Temperatures

Place Temperature

Stations

Nearby Weather Stations

Station Location Temp. Windchill Dew Point Humidity Wind Precip. Elev Updated Type